< < Back
Terminal Aerodrome Forecast


Current Version              Previous Versions:   1  2  3  4  5  6  7  8  9  

Terminal Aerodrome Forecast

715
FTUS44 KBMX 301700
TAFTCL
TAF
KTCL 301725Z 3018/3118 02008G15KT P6SM SKC
     FM302300 34004KT P6SM SKC=

Latest METAR

148
SAUS70 KWBC 301700 RRG
MTRTCL
METAR KTCL 301653Z 02008G15KT 10SM CLR 19/03 A3014 RMK AO2 SLP204
T01890028


USA.gov is the U.S. government's official web portal to all federal, state and local government web resources and services.